sensor_id;sensor_type;location;lat;lon;timestamp;pressure;altitude;pressure_sealevel;temperature;humidity
49979;BME280;35869;50.990;6.962;2023-07-29T00:04:22;100466.19;;;19.84;100.00
49979;BME280;35869;50.990;6.962;2023-07-29T00:09:22;100454.94;;;19.82;100.00
49979;BME280;35869;50.990;6.962;2023-07-29T00:14:22;100442.69;;;19.81;100.00
49979;BME280;35869;50.990;6.962;2023-07-29T00:19:22;100444.50;;;19.80;100.00
49979;BME280;35869;50.990;6.962;2023-07-29T00:24:23;100433.41;;;19.77;100.00
49979;BME280;35869;50.990;6.962;2023-07-29T00:29:23;100430.78;;;19.77;100.00
49979;BME280;35869;50.990;6.962;2023-07-29T00:34:23;100430.78;;;19.77;100.00
49979;BME280;35869;50.990;6.962;2023-07-29T00:39:23;100425.50;;;19.77;100.00
49979;BME280;35869;50.990;6.962;2023-07-29T00:44:24;100435.22;;;19.76;100.00
49979;BME280;35869;50.990;6.962;2023-07-29T00:49:24;100434.34;;;19.76;100.00
49979;BME280;35869;50.990;6.962;2023-07-29T00:54:24;100429.22;;;19.74;100.00
49979;BME280;35869;50.990;6.962;2023-07-29T00:59:25;100420.75;;;19.70;100.00
49979;BME280;35869;50.990;6.962;2023-07-29T01:04:25;100410.31;;;19.69;100.00
49979;BME280;35869;50.990;6.962;2023-07-29T01:20:15;100395.75;;;19.65;100.00
49979;BME280;35869;50.990;6.962;2023-07-29T01:25:15;100386.28;;;19.62;100.00
49979;BME280;35869;50.990;6.962;2023-07-29T01:30:16;100390.88;;;19.60;100.00
49979;BME280;35869;50.990;6.962;2023-07-29T01:35:42;100390.88;;;19.60;100.00
49979;BME280;35869;50.990;6.962;2023-07-29T01:40:43;100390.19;;;19.58;100.00
49979;BME280;35869;50.990;6.962;2023-07-29T01:45:44;100394.50;;;19.59;100.00
49979;BME280;35869;50.990;6.962;2023-07-29T01:50:44;100382.50;;;19.55;100.00
49979;BME280;35869;50.990;6.962;2023-07-29T01:55:45;100377.38;;;19.54;100.00
49979;BME280;35869;50.990;6.962;2023-07-29T02:00:45;100392.91;;;19.57;100.00
49979;BME280;35869;50.990;6.962;2023-07-29T02:05:45;100391.25;;;19.56;100.00
49979;BME280;35869;50.990;6.962;2023-07-29T02:10:45;100382.34;;;19.57;100.00
49979;BME280;35869;50.990;6.962;2023-07-29T02:15:46;100380.69;;;19.56;100.00
49979;BME280;35869;50.990;6.962;2023-07-29T02:20:46;100369.47;;;19.54;100.00
49979;BME280;35869;50.990;6.962;2023-07-29T02:25:46;100378.19;;;19.54;100.00
49979;BME280;35869;50.990;6.962;2023-07-29T02:30:46;100385.38;;;19.52;100.00
49979;BME280;35869;50.990;6.962;2023-07-29T02:35:46;100368.63;;;19.53;100.00
49979;BME280;35869;50.990;6.962;2023-07-29T02:40:46;100365.28;;;19.51;100.00
49979;BME280;35869;50.990;6.962;2023-07-29T02:45:47;100370.53;;;19.51;100.00
49979;BME280;35869;50.990;6.962;2023-07-29T02:50:47;100389.97;;;19.50;100.00
49979;BME280;35869;50.990;6.962;2023-07-29T02:55:47;100390.94;;;19.49;100.00
49979;BME280;35869;50.990;6.962;2023-07-29T03:00:48;100386.66;;;19.48;100.00
49979;BME280;35869;50.990;6.962;2023-07-29T03:05:48;100390.13;;;19.49;100.00
49979;BME280;35869;50.990;6.962;2023-07-29T03:10:48;100390.13;;;19.49;100.00
49979;BME280;35869;50.990;6.962;2023-07-29T03:15:48;100386.06;;;19.44;100.00
49979;BME280;35869;50.990;6.962;2023-07-29T03:20:49;100378.00;;;19.46;100.00
49979;BME280;35869;50.990;6.962;2023-07-29T03:25:49;100372.75;;;19.46;100.00
49979;BME280;35869;50.990;6.962;2023-07-29T03:30:50;100364.72;;;19.48;100.00
49979;BME280;35869;50.990;6.962;2023-07-29T03:35:50;100372.75;;;19.46;100.00
49979;BME280;35869;50.990;6.962;2023-07-29T03:40:51;100356.25;;;19.44;100.00
49979;BME280;35869;50.990;6.962;2023-07-29T03:45:51;100361.50;;;19.44;100.00
49979;BME280;35869;50.990;6.962;2023-07-29T03:50:51;100361.66;;;19.42;100.00
49979;BME280;35869;50.990;6.962;2023-07-29T03:55:51;100350.53;;;19.39;100.00
49979;BME280;35869;50.990;6.962;2023-07-29T04:00:51;100374.97;;;19.41;100.00
49979;BME280;35869;50.990;6.962;2023-07-29T04:05:52;100362.19;;;19.36;100.00
49979;BME280;35869;50.990;6.962;2023-07-29T04:10:52;100382.16;;;19.39;100.00
49979;BME280;35869;50.990;6.962;2023-07-29T04:15:52;100378.97;;;19.35;100.00
49979;BME280;35869;50.990;6.962;2023-07-29T04:20:52;100385.31;;;19.33;100.00
49979;BME280;35869;50.990;6.962;2023-07-29T04:25:53;100391.56;;;19.32;100.00
49979;BME280;35869;50.990;6.962;2023-07-29T04:30:53;100383.81;;;19.30;100.00
49979;BME280;35869;50.990;6.962;2023-07-29T04:35:53;100376.00;;;19.29;100.00
49979;BME280;35869;50.990;6.962;2023-07-29T04:40:53;100391.00;;;19.28;100.00
49979;BME280;35869;50.990;6.962;2023-07-29T04:45:54;100411.38;;;19.26;100.00
49979;BME280;35869;50.990;6.962;2023-07-29T04:50:54;100418.00;;;19.21;100.00
49979;BME280;35869;50.990;6.962;2023-07-29T04:55:54;100411.75;;;19.22;100.00
49979;BME280;35869;50.990;6.962;2023-07-29T05:00:55;100409.13;;;19.22;100.00
49979;BME280;35869;50.990;6.962;2023-07-29T05:05:55;100398.88;;;19.18;100.00
49979;BME280;35869;50.990;6.962;2023-07-29T05:10:56;100397.91;;;19.20;100.00
49979;BME280;35869;50.990;6.962;2023-07-29T05:15:56;100404.25;;;19.17;100.00
49979;BME280;35869;50.990;6.962;2023-07-29T05:20:56;100398.97;;;19.17;100.00
49979;BME280;35869;50.990;6.962;2023-07-29T05:25:56;100392.47;;;19.11;100.00
49979;BME280;35869;50.990;6.962;2023-07-29T05:31:00;100399.09;;;19.15;100.00
49979;BME280;35869;50.990;6.962;2023-07-29T05:36:00;100415.75;;;19.16;100.00
49979;BME280;35869;50.990;6.962;2023-07-29T05:41:01;100429.19;;;19.13;100.00
49979;BME280;35869;50.990;6.962;2023-07-29T05:46:01;100435.31;;;19.13;100.00
49979;BME280;35869;50.990;6.962;2023-07-29T05:51:01;100440.56;;;19.13;100.00
49979;BME280;35869;50.990;6.962;2023-07-29T05:56:01;100460.81;;;19.13;100.00
49979;BME280;35869;50.990;6.962;2023-07-29T06:01:02;100459.16;;;19.12;100.00
49979;BME280;35869;50.990;6.962;2023-07-29T06:06:03;100472.44;;;19.10;100.00
49979;BME280;35869;50.990;6.962;2023-07-29T06:11:03;100474.13;;;19.11;100.00
49979;BME280;35869;50.990;6.962;2023-07-29T06:16:03;100476.34;;;19.16;100.00
49979;BME280;35869;50.990;6.962;2023-07-29T06:21:04;100477.59;;;19.12;100.00
49979;BME280;35869;50.990;6.962;2023-07-29T06:26:04;100501.16;;;19.13;100.00
49979;BME280;35869;50.990;6.962;2023-07-29T06:31:04;100505.47;;;19.14;100.00
49979;BME280;35869;50.990;6.962;2023-07-29T06:36:04;100507.19;;;19.04;100.00
49979;BME280;35869;50.990;6.962;2023-07-29T06:41:05;100500.13;;;19.05;100.00
49979;BME280;35869;50.990;6.962;2023-07-29T06:46:05;100507.78;;;19.08;100.00
49979;BME280;35869;50.990;6.962;2023-07-29T06:51:05;100496.97;;;19.11;100.00
49979;BME280;35869;50.990;6.962;2023-07-29T06:56:05;100500.72;;;19.08;100.00
49979;BME280;35869;50.990;6.962;2023-07-29T07:01:06;100498.22;;;19.07;100.00
49979;BME280;35869;50.990;6.962;2023-07-29T07:06:06;100491.13;;;19.07;100.00
49979;BME280;35869;50.990;6.962;2023-07-29T07:11:06;100494.53;;;18.98;100.00
49979;BME280;35869;50.990;6.962;2023-07-29T07:16:06;100492.94;;;19.07;100.00
49979;BME280;35869;50.990;6.962;2023-07-29T07:21:06;100500.56;;;19.10;100.00
49979;BME280;35869;50.990;6.962;2023-07-29T07:26:07;100508.78;;;19.16;100.00
49979;BME280;35869;50.990;6.962;2023-07-29T07:31:07;100509.53;;;19.18;100.00
49979;BME280;35869;50.990;6.962;2023-07-29T07:36:07;100514.34;;;19.13;100.00
49979;BME280;35869;50.990;6.962;2023-07-29T07:41:07;100524.50;;;19.18;100.00
49979;BME280;35869;50.990;6.962;2023-07-29T07:46:08;100520.50;;;19.24;100.00
49979;BME280;35869;50.990;6.962;2023-07-29T07:51:11;100518.56;;;19.26;100.00
49979;BME280;35869;50.990;6.962;2023-07-29T07:56:12;100528.84;;;19.29;100.00
49979;BME280;35869;50.990;6.962;2023-07-29T08:01:12;100516.63;;;19.28;100.00
49979;BME280;35869;50.990;6.962;2023-07-29T08:06:12;100521.16;;;19.37;100.00
49979;BME280;35869;50.990;6.962;2023-07-29T08:11:12;100524.03;;;19.34;100.00
49979;BME280;35869;50.990;6.962;2023-07-29T08:16:13;100525.53;;;19.48;100.00
49979;BME280;35869;50.990;6.962;2023-07-29T08:21:13;100513.38;;;19.35;100.00
49979;BME280;35869;50.990;6.962;2023-07-29T08:26:13;100513.72;;;19.52;100.00
49979;BME280;35869;50.990;6.962;2023-07-29T08:31:13;100517.88;;;19.24;100.00
49979;BME280;35869;50.990;6.962;2023-07-29T08:36:14;100513.63;;;19.32;100.00
49979;BME280;35869;50.990;6.962;2023-07-29T08:41:26;100511.31;;;19.60;100.00
49979;BME280;35869;50.990;6.962;2023-07-29T08:46:29;100530.75;;;19.59;100.00
49979;BME280;35869;50.990;6.962;2023-07-29T08:51:31;100527.16;;;19.69;100.00
49979;BME280;35869;50.990;6.962;2023-07-29T08:56:31;100533.88;;;19.74;100.00
49979;BME280;35869;50.990;6.962;2023-07-29T09:01:32;100532.50;;;19.79;100.00
49979;BME280;35869;50.990;6.962;2023-07-29T09:06:32;100539.34;;;19.82;100.00
49979;BME280;35869;50.990;6.962;2023-07-29T09:11:33;100540.81;;;19.75;100.00
49979;BME280;35869;50.990;6.962;2023-07-29T09:16:33;100544.16;;;19.77;100.00
49979;BME280;35869;50.990;6.962;2023-07-29T09:21:34;100548.59;;;19.76;100.00
49979;BME280;35869;50.990;6.962;2023-07-29T09:26:38;100552.78;;;19.79;100.00
49979;BME280;35869;50.990;6.962;2023-07-29T09:31:38;100548.69;;;19.65;100.00
49979;BME280;35869;50.990;6.962;2023-07-29T09:36:40;100545.03;;;19.87;100.00
49979;BME280;35869;50.990;6.962;2023-07-29T09:41:40;100553.22;;;19.84;100.00
49979;BME280;35869;50.990;6.962;2023-07-29T09:46:45;100542.44;;;19.96;100.00
49979;BME280;35869;50.990;6.962;2023-07-29T09:51:46;100549.28;;;20.09;100.00
49979;BME280;35869;50.990;6.962;2023-07-29T09:56:47;100539.16;;;20.14;100.00
49979;BME280;35869;50.990;6.962;2023-07-29T10:01:47;100545.75;;;20.39;100.00
49979;BME280;35869;50.990;6.962;2023-07-29T10:06:47;100553.91;;;20.47;100.00
49979;BME280;35869;50.990;6.962;2023-07-29T10:11:49;100557.25;;;20.59;100.00
49979;BME280;35869;50.990;6.962;2023-07-29T10:16:50;100548.09;;;20.92;100.00
49979;BME280;35869;50.990;6.962;2023-07-29T10:21:52;100551.16;;;20.97;100.00
49979;BME280;35869;50.990;6.962;2023-07-29T10:26:52;100547.41;;;21.09;100.00
49979;BME280;35869;50.990;6.962;2023-07-29T10:31:52;100554.19;;;21.21;100.00
49979;BME280;35869;50.990;6.962;2023-07-29T10:36:53;100555.31;;;21.09;100.00
49979;BME280;35869;50.990;6.962;2023-07-29T10:42:01;100558.66;;;21.01;100.00
49979;BME280;35869;50.990;6.962;2023-07-29T10:47:11;100565.91;;;21.09;100.00
49979;BME280;35869;50.990;6.962;2023-07-29T10:52:15;100559.25;;;21.05;100.00
49979;BME280;35869;50.990;6.962;2023-07-29T10:57:30;100562.28;;;21.10;100.00
49979;BME280;35869;50.990;6.962;2023-07-29T11:02:33;100557.56;;;21.14;100.00
49979;BME280;35869;50.990;6.962;2023-07-29T11:07:52;100545.72;;;20.98;100.00
49979;BME280;35869;50.990;6.962;2023-07-29T11:12:52;100545.88;;;21.07;100.00
49979;BME280;35869;50.990;6.962;2023-07-29T11:18:00;100547.13;;;21.12;100.00
49979;BME280;35869;50.990;6.962;2023-07-29T11:23:02;100555.31;;;21.09;100.00
49979;BME280;35869;50.990;6.962;2023-07-29T11:28:03;100542.38;;;21.16;100.00
49979;BME280;35869;50.990;6.962;2023-07-29T11:33:03;100537.25;;;21.34;99.21
49979;BME280;35869;50.990;6.962;2023-07-29T11:38:03;100550.19;;;21.46;100.00
49979;BME280;35869;50.990;6.962;2023-07-29T11:43:04;100530.69;;;21.38;100.00
49979;BME280;35869;50.990;6.962;2023-07-29T11:48:06;100525.50;;;21.65;99.19
49979;BME280;35869;50.990;6.962;2023-07-29T11:53:06;100530.47;;;21.68;100.00
49979;BME280;35869;50.990;6.962;2023-07-29T11:58:07;100533.28;;;21.57;100.00
49979;BME280;35869;50.990;6.962;2023-07-29T12:03:07;100533.25;;;21.76;99.51
49979;BME280;35869;50.990;6.962;2023-07-29T12:08:08;100522.75;;;21.94;98.13
49979;BME280;35869;50.990;6.962;2023-07-29T12:13:09;100523.75;;;21.83;99.18
49979;BME280;35869;50.990;6.962;2023-07-29T12:18:09;100519.09;;;21.95;98.86
49979;BME280;35869;50.990;6.962;2023-07-29T12:23:09;100516.44;;;22.05;98.65
49979;BME280;35869;50.990;6.962;2023-07-29T12:28:09;100512.56;;;21.99;98.69
49979;BME280;35869;50.990;6.962;2023-07-29T12:33:09;100510.13;;;22.33;95.73
49979;BME280;35869;50.990;6.962;2023-07-29T12:38:10;100498.84;;;22.59;95.32
49979;BME280;35869;50.990;6.962;2023-07-29T12:43:10;100487.84;;;23.07;85.57
49979;BME280;35869;50.990;6.962;2023-07-29T12:48:10;100498.50;;;23.15;90.60
49979;BME280;35869;50.990;6.962;2023-07-29T12:53:11;100498.50;;;22.80;91.04
49979;BME280;35869;50.990;6.962;2023-07-29T12:58:11;100486.47;;;22.85;91.95
49979;BME280;35869;50.990;6.962;2023-07-29T13:03:11;100489.25;;;22.94;91.40
49979;BME280;35869;50.990;6.962;2023-07-29T13:08:14;100483.44;;;23.16;91.51
49979;BME280;35869;50.990;6.962;2023-07-29T13:13:15;100490.66;;;23.06;92.34
49979;BME280;35869;50.990;6.962;2023-07-29T13:18:15;100498.97;;;23.11;92.86
49979;BME280;35869;50.990;6.962;2023-07-29T13:23:16;100492.72;;;23.20;92.37
49979;BME280;35869;50.990;6.962;2023-07-29T13:28:16;100497.41;;;23.26;92.10
49979;BME280;35869;50.990;6.962;2023-07-29T13:33:16;100506.19;;;23.27;90.98
49979;BME280;35869;50.990;6.962;2023-07-29T13:38:16;100498.56;;;23.24;91.75
49979;BME280;35869;50.990;6.962;2023-07-29T13:43:17;100511.03;;;23.05;91.54
49979;BME280;35869;50.990;6.962;2023-07-29T13:48:17;100514.75;;;22.95;92.64
49979;BME280;35869;50.990;6.962;2023-07-29T13:53:18;100515.94;;;22.82;93.83
49979;BME280;35869;50.990;6.962;2023-07-29T13:58:18;100521.69;;;22.60;96.86
49979;BME280;35869;50.990;6.962;2023-07-29T14:03:18;100531.28;;;22.43;98.46
49979;BME280;35869;50.990;6.962;2023-07-29T14:08:18;100547.13;;;22.25;100.00
49979;BME280;35869;50.990;6.962;2023-07-29T14:13:19;100523.97;;;22.27;99.91
49979;BME280;35869;50.990;6.962;2023-07-29T14:18:19;100513.31;;;22.19;100.00
49979;BME280;35869;50.990;6.962;2023-07-29T14:23:19;100504.69;;;22.17;100.00
49979;BME280;35869;50.990;6.962;2023-07-29T14:28:19;100516.19;;;22.26;100.00
49979;BME280;35869;50.990;6.962;2023-07-29T14:33:19;100510.44;;;22.30;100.00
49979;BME280;35869;50.990;6.962;2023-07-29T14:38:20;100523.16;;;22.45;100.00
49979;BME280;35869;50.990;6.962;2023-07-29T14:43:20;100517.22;;;22.60;100.00
49979;BME280;35869;50.990;6.962;2023-07-29T14:48:20;100524.00;;;22.45;100.00
49979;BME280;35869;50.990;6.962;2023-07-29T14:53:21;100519.03;;;22.42;100.00
49979;BME280;35869;50.990;6.962;2023-07-29T14:58:21;100522.34;;;22.44;100.00
49979;BME280;35869;50.990;6.962;2023-07-29T15:03:21;100522.41;;;22.34;100.00
49979;BME280;35869;50.990;6.962;2023-07-29T15:08:21;100520.66;;;22.25;100.00
49979;BME280;35869;50.990;6.962;2023-07-29T15:13:22;100517.53;;;22.12;100.00
49979;BME280;35869;50.990;6.962;2023-07-29T15:18:22;100516.63;;;22.21;100.00
49979;BME280;35869;50.990;6.962;2023-07-29T15:23:23;100513.31;;;22.19;100.00
49979;BME280;35869;50.990;6.962;2023-07-29T15:28:23;100506.22;;;22.10;100.00
49979;BME280;35869;50.990;6.962;2023-07-29T15:33:23;100497.78;;;21.97;99.29
49979;BME280;35869;50.990;6.962;2023-07-29T15:38:23;100488.84;;;21.98;100.00
49979;BME280;35869;50.990;6.962;2023-07-29T15:43:23;100501.66;;;22.02;100.00
49979;BME280;35869;50.990;6.962;2023-07-29T15:48:24;100503.91;;;21.97;100.00
49979;BME280;35869;50.990;6.962;2023-07-29T15:53:24;100499.00;;;22.02;100.00
49979;BME280;35869;50.990;6.962;2023-07-29T15:58:25;100506.66;;;22.05;100.00
49979;BME280;35869;50.990;6.962;2023-07-29T16:03:25;100508.09;;;22.00;100.00
49979;BME280;35869;50.990;6.962;2023-07-29T16:08:25;100507.97;;;21.92;100.00
49979;BME280;35869;50.990;6.962;2023-07-29T16:13:25;100509.94;;;21.90;100.00
49979;BME280;35869;50.990;6.962;2023-07-29T16:18:26;100512.84;;;21.87;100.00
49979;BME280;35869;50.990;6.962;2023-07-29T16:23:26;100511.50;;;21.82;100.00
49979;BME280;35869;50.990;6.962;2023-07-29T16:28:26;100508.47;;;21.77;100.00
49979;BME280;35869;50.990;6.962;2023-07-29T16:33:26;100501.50;;;21.76;100.00
49979;BME280;35869;50.990;6.962;2023-07-29T16:38:26;100496.66;;;21.72;100.00
49979;BME280;35869;50.990;6.962;2023-07-29T16:43:28;100498.03;;;21.76;100.00
49979;BME280;35869;50.990;6.962;2023-07-29T16:48:28;100490.78;;;21.78;100.00
49979;BME280;35869;50.990;6.962;2023-07-29T16:53:28;100494.09;;;21.80;100.00
49979;BME280;35869;50.990;6.962;2023-07-29T16:58:28;100479.94;;;21.71;100.00
49979;BME280;35869;50.990;6.962;2023-07-29T17:03:29;100480.94;;;21.70;100.00
49979;BME280;35869;50.990;6.962;2023-07-29T17:08:29;100477.88;;;21.65;100.00
49979;BME280;35869;50.990;6.962;2023-07-29T17:13:29;100481.22;;;21.58;100.00
49979;BME280;35869;50.990;6.962;2023-07-29T17:18:29;100468.88;;;21.58;100.00
49979;BME280;35869;50.990;6.962;2023-07-29T17:23:30;100472.78;;;21.54;100.00
49979;BME280;35869;50.990;6.962;2023-07-29T17:28:30;100489.06;;;21.49;100.00
49979;BME280;35869;50.990;6.962;2023-07-29T17:33:30;100495.75;;;21.44;100.00
49979;BME280;35869;50.990;6.962;2023-07-29T17:38:31;100495.59;;;21.45;100.00
49979;BME280;35869;50.990;6.962;2023-07-29T17:43:31;100514.13;;;21.45;100.00
49979;BME280;35869;50.990;6.962;2023-07-29T17:48:31;100527.78;;;21.41;100.00
49979;BME280;35869;50.990;6.962;2023-07-29T17:53:31;100523.59;;;21.38;100.00
49979;BME280;35869;50.990;6.962;2023-07-29T17:58:31;100518.88;;;21.32;100.00
49979;BME280;35869;50.990;6.962;2023-07-29T18:03:32;100526.97;;;21.31;100.00
49979;BME280;35869;50.990;6.962;2023-07-29T18:08:32;100562.53;;;21.26;100.00
49979;BME280;35869;50.990;6.962;2023-07-29T18:13:32;100555.88;;;21.22;100.00
49979;BME280;35869;50.990;6.962;2023-07-29T18:18:34;100556.72;;;21.13;100.00
49979;BME280;35869;50.990;6.962;2023-07-29T18:23:34;100546.56;;;21.09;100.00
49979;BME280;35869;50.990;6.962;2023-07-29T18:28:37;100545.59;;;21.00;100.00
49979;BME280;35869;50.990;6.962;2023-07-29T18:39:20;100535.72;;;20.83;100.00
49979;BME280;35869;50.990;6.962;2023-07-29T18:44:37;100539.03;;;20.75;100.00
49979;BME280;35869;50.990;6.962;2023-07-29T18:49:58;100546.25;;;20.63;100.00
49979;BME280;35869;50.990;6.962;2023-07-29T18:55:01;100550.41;;;20.56;100.00
49979;BME280;35869;50.990;6.962;2023-07-29T19:05:56;100556.06;;;20.42;100.00
49979;BME280;35869;50.990;6.962;2023-07-29T19:11:04;100556.72;;;20.34;100.00
49979;BME280;35869;50.990;6.962;2023-07-29T19:16:05;100559.91;;;20.28;100.00
49979;BME280;35869;50.990;6.962;2023-07-29T19:21:19;100565.59;;;20.23;100.00
49979;BME280;35869;50.990;6.962;2023-07-29T19:26:19;100562.09;;;20.13;100.00
49979;BME280;35869;50.990;6.962;2023-07-29T19:31:19;100567.22;;;20.05;100.00
49979;BME280;35869;50.990;6.962;2023-07-29T19:36:20;100560.75;;;19.98;100.00
49979;BME280;35869;50.990;6.962;2023-07-29T19:41:20;100568.50;;;19.90;100.00
49979;BME280;35869;50.990;6.962;2023-07-29T19:46:20;100570.72;;;19.85;100.00
49979;BME280;35869;50.990;6.962;2023-07-29T19:51:54;100570.78;;;19.74;100.00
49979;BME280;35869;50.990;6.962;2023-07-29T19:57:30;100568.66;;;19.67;100.00
49979;BME280;35869;50.990;6.962;2023-07-29T20:14:39;100567.81;;;19.46;100.00
49979;BME280;35869;50.990;6.962;2023-07-29T21:27:10;100581.38;;;18.88;100.00
49979;BME280;35869;50.990;6.962;2023-07-29T21:43:24;100587.50;;;18.78;100.00
49979;BME280;35869;50.990;6.962;2023-07-29T21:48:24;100602.47;;;18.77;100.00
49979;BME280;35869;50.990;6.962;2023-07-29T21:53:24;100597.22;;;18.77;100.00
49979;BME280;35869;50.990;6.962;2023-07-29T21:58:24;100618.38;;;18.76;100.00
49979;BME280;35869;50.990;6.962;2023-07-29T22:03:25;100622.09;;;18.73;100.00
49979;BME280;35869;50.990;6.962;2023-07-29T22:08:33;100627.50;;;18.72;100.00
49979;BME280;35869;50.990;6.962;2023-07-29T22:13:40;100639.31;;;18.66;100.00
49979;BME280;35869;50.990;6.962;2023-07-29T22:30:18;100663.16;;;18.53;100.00
49979;BME280;35869;50.990;6.962;2023-07-29T22:35:29;100668.41;;;18.53;100.00
49979;BME280;35869;50.990;6.962;2023-07-29T22:40:29;100681.66;;;18.52;100.00
49979;BME280;35869;50.990;6.962;2023-07-29T22:45:32;100676.03;;;18.45;100.00
49979;BME280;35869;50.990;6.962;2023-07-29T22:50:33;100683.47;;;18.40;100.00
49979;BME280;35869;50.990;6.962;2023-07-29T22:55:42;100692.56;;;18.36;100.00
49979;BME280;35869;50.990;6.962;2023-07-29T23:00:46;100688.72;;;18.29;100.00
49979;BME280;35869;50.990;6.962;2023-07-29T23:05:50;100691.81;;;18.23;100.00
49979;BME280;35869;50.990;6.962;2023-07-29T23:16:23;100697.19;;;18.10;100.00
49979;BME280;35869;50.990;6.962;2023-07-29T23:21:23;100703.53;;;18.07;100.00
49979;BME280;35869;50.990;6.962;2023-07-29T23:42:36;100701.34;;;17.90;100.00
49979;BME280;35869;50.990;6.962;2023-07-29T23:47:42;100701.78;;;17.84;100.00
49979;BME280;35869;50.990;6.962;2023-07-29T23:52:45;100703.09;;;17.78;100.00
49979;BME280;35869;50.990;6.962;2023-07-29T23:57:45;100689.75;;;17.69;100.00
